createdAt,value
2023-01-04T00:01:07.382Z,97470.59
2023-01-04T00:03:35.593Z,97474.56
2023-01-04T00:06:05.985Z,97471.19
2023-01-04T00:08:34.177Z,97474.38
2023-01-04T00:11:01.766Z,97469.59
2023-01-04T00:13:29.318Z,97470.59
2023-01-04T00:15:59.016Z,97458.97
2023-01-04T00:18:30.843Z,97466.69
2023-01-04T00:21:07.832Z,97461.06
2023-01-04T00:23:35.335Z,97456.06
2023-01-04T00:26:02.870Z,97458.59
2023-01-04T00:28:30.364Z,97458.44
2023-01-04T00:30:57.890Z,97463.63
2023-01-04T00:33:25.416Z,97453.72
2023-01-04T00:35:54.255Z,97449.59
2023-01-04T00:38:21.756Z,97446.97
2023-01-04T00:40:49.470Z,97441.81
2023-01-04T00:43:16.973Z,97439.47
2023-01-04T00:45:44.614Z,97433.44
2023-01-04T00:48:12.109Z,97426.25
2023-01-04T00:50:39.613Z,97423.41
2023-01-04T00:53:08.459Z,97423.78
2023-01-04T00:55:35.930Z,97427.66
2023-01-04T00:58:03.456Z,97427.66
2023-01-04T01:00:30.983Z,97431.59
2023-01-04T01:02:58.672Z,97439.41
2023-01-04T01:05:26.940Z,97438.13
2023-01-04T01:07:54.765Z,97444.31
2023-01-04T01:10:23.678Z,97437.75
2023-01-04T01:12:51.167Z,97448.91
2023-01-04T01:15:18.775Z,97447.69
2023-01-04T01:17:46.266Z,97447.59
2023-01-04T01:20:13.764Z,97441.59
2023-01-04T01:22:41.554Z,97440.84
2023-01-04T01:25:09.281Z,97442.44
2023-01-04T01:27:38.116Z,97435.78
2023-01-04T01:30:06.998Z,97444.28
2023-01-04T01:32:34.512Z,97443.13
2023-01-04T01:35:02.008Z,97435.66
2023-01-04T01:37:29.513Z,97426.69
2023-01-04T01:39:57.011Z,97427.34
2023-01-04T01:42:24.689Z,97440.34
2023-01-04T01:45:02.236Z,97429.06
2023-01-04T01:47:38.673Z,97424.25
2023-01-04T01:50:16.560Z,97423.06
2023-01-04T01:52:44.155Z,97426.94
2023-01-04T01:55:13.455Z,97415.16
2023-01-04T01:57:41.463Z,97418.25
2023-01-04T02:00:17.536Z,97425.19
2023-01-04T02:02:55.867Z,97428.69
2023-01-04T02:05:25.275Z,97429.06
2023-01-04T02:07:53.607Z,97428.63
2023-01-04T02:10:21.829Z,97423.63
2023-01-04T02:12:51.594Z,97426.91
2023-01-04T02:15:22.108Z,97421.09
2023-01-04T02:17:59.469Z,97418.28
2023-01-04T02:20:44.166Z,97414.50
2023-01-04T02:23:44.091Z,97402.50
2023-01-04T02:26:48.035Z,97397.00
2023-01-04T02:29:46.685Z,97386.22
2023-01-04T02:32:23.960Z,97393.47
2023-01-04T02:35:00.228Z,97381.09
2023-01-04T02:37:37.651Z,97388.47
2023-01-04T02:40:13.287Z,97386.59
2023-01-04T02:43:10.769Z,97380.31
2023-01-04T02:45:46.048Z,97381.81
2023-01-04T02:48:32.441Z,97387.31
2023-01-04T02:51:01.198Z,97390.69
2023-01-04T02:53:32.824Z,97392.00
2023-01-04T02:56:12.066Z,97396.25
2023-01-04T02:59:04.236Z,97386.75
2023-01-04T03:01:57.413Z,97376.94
2023-01-04T03:04:57.845Z,97375.28
2023-01-04T03:07:31.246Z,97386.44
2023-01-04T03:10:06.656Z,97386.63
2023-01-04T03:12:41.714Z,97392.13
2023-01-04T03:15:15.941Z,97390.34
2023-01-04T03:17:48.518Z,97380.53
2023-01-04T03:20:19.392Z,97378.81
2023-01-04T03:23:09.082Z,97385.38
2023-01-04T03:25:58.224Z,97389.53
2023-01-04T03:28:46.538Z,97369.00
2023-01-04T03:31:52.556Z,97369.63
2023-01-04T03:34:38.291Z,97367.31
2023-01-04T03:37:16.819Z,97357.38
2023-01-04T03:40:18.574Z,97361.06
2023-01-04T03:43:10.003Z,97359.44
2023-01-04T03:46:01.288Z,97360.13
2023-01-04T03:48:35.015Z,97347.72
2023-01-04T03:51:14.437Z,97347.13
2023-01-04T03:53:50.161Z,97339.31
2023-01-04T03:56:22.326Z,97336.81
2023-01-04T03:58:50.506Z,97329.66
2023-01-04T04:01:20.410Z,97311.13
2023-01-04T04:04:05.895Z,97318.16
2023-01-04T04:06:51.531Z,97309.34
2023-01-04T04:09:20.392Z,97305.63
2023-01-04T04:11:48.716Z,97303.63
2023-01-04T04:14:16.542Z,97311.72
2023-01-04T04:16:44.133Z,97308.53
2023-01-04T04:19:11.955Z,97306.66
2023-01-04T04:21:39.467Z,97323.81
2023-01-04T04:24:07.908Z,97321.50
2023-01-04T04:26:36.769Z,97317.94
2023-01-04T04:29:04.353Z,97309.41
2023-01-04T04:31:31.933Z,97310.28
2023-01-04T04:33:59.496Z,97327.97
2023-01-04T04:36:27.058Z,97321.56
2023-01-04T04:38:54.632Z,97328.06
2023-01-04T04:41:39.386Z,97315.34
2023-01-04T04:44:08.869Z,97322.72
2023-01-04T04:46:36.434Z,97317.25
2023-01-04T04:49:04.392Z,97315.72
2023-01-04T04:51:31.949Z,97313.94
2023-01-04T04:53:59.459Z,97307.03
2023-01-04T04:56:27.072Z,97312.97
2023-01-04T04:58:55.338Z,97311.84
2023-01-04T05:01:24.590Z,97299.81
2023-01-04T05:03:52.161Z,97304.75
2023-01-04T05:06:19.799Z,97301.38
2023-01-04T05:08:47.355Z,97298.19
2023-01-04T05:11:15.491Z,97294.97
2023-01-04T05:13:42.393Z,97289.88
2023-01-04T05:16:10.927Z,97298.63
2023-01-04T05:18:39.903Z,97299.81
2023-01-04T05:21:07.456Z,97303.09
2023-01-04T05:23:34.979Z,97299.25
2023-01-04T05:26:03.669Z,97299.84
2023-01-04T05:28:31.202Z,97300.56
2023-01-04T05:30:57.745Z,97286.59
2023-01-04T05:33:27.776Z,97309.38
2023-01-04T05:35:58.169Z,97307.22
2023-01-04T05:38:26.820Z,97310.84
2023-01-04T05:40:54.778Z,97313.81
2023-01-04T05:43:23.818Z,97308.88
2023-01-04T05:45:53.156Z,97312.25
2023-01-04T05:48:22.023Z,97305.19
2023-01-04T05:50:50.064Z,97297.69
2023-01-04T05:53:19.076Z,97295.94
2023-01-04T05:55:48.570Z,97292.25
2023-01-04T05:58:16.440Z,97303.28
2023-01-04T06:00:43.982Z,97286.69
2023-01-04T06:03:11.663Z,97284.97
2023-01-04T06:05:39.312Z,97286.31
2023-01-04T06:08:07.578Z,97280.56
2023-01-04T06:10:36.416Z,97275.13
2023-01-04T06:13:03.924Z,97268.16
2023-01-04T06:15:31.474Z,97257.94
2023-01-04T06:17:58.963Z,97263.13
2023-01-04T06:20:26.701Z,97259.09
2023-01-04T06:22:54.267Z,97262.47
2023-01-04T06:25:21.813Z,97255.97
2023-01-04T06:27:50.637Z,97260.16
2023-01-04T06:30:18.299Z,97264.38
2023-01-04T06:32:45.783Z,97260.38
2023-01-04T06:35:13.267Z,97270.50
2023-01-04T06:37:40.752Z,97262.47
2023-01-04T06:40:09.928Z,97265.41
2023-01-04T06:42:46.527Z,97276.38
2023-01-04T06:45:16.395Z,97274.16
2023-01-04T06:47:44.704Z,97271.31
2023-01-04T06:50:12.640Z,97266.25
2023-01-04T06:52:40.358Z,97263.75
2023-01-04T06:55:09.381Z,97263.00
2023-01-04T06:57:36.956Z,97263.03
2023-01-04T07:00:06.252Z,97262.47
2023-01-04T07:02:35.316Z,97247.53
2023-01-04T07:05:03.499Z,97255.25
2023-01-04T07:07:31.162Z,97260.38
2023-01-04T07:10:02.320Z,97255.28
2023-01-04T07:12:33.325Z,97259.97
2023-01-04T07:15:00.934Z,97252.97
2023-01-04T07:17:30.157Z,97240.91
2023-01-04T07:19:59.121Z,97240.81
2023-01-04T07:22:26.603Z,97251.75
2023-01-04T07:24:54.077Z,97243.19
2023-01-04T07:27:21.562Z,97244.75
2023-01-04T07:29:49.051Z,97230.88
2023-01-04T07:32:17.049Z,97217.28
2023-01-04T07:34:44.529Z,97211.47
2023-01-04T07:37:15.377Z,97216.44
2023-01-04T07:39:43.819Z,97223.09
2023-01-04T07:42:11.680Z,97220.34
2023-01-04T07:44:39.224Z,97217.38
2023-01-04T07:47:07.285Z,97207.72
2023-01-04T07:49:34.784Z,97214.97
2023-01-04T07:52:02.288Z,97210.47
2023-01-04T07:54:31.114Z,97212.97
2023-01-04T07:56:58.660Z,97212.97
2023-01-04T07:59:26.382Z,97212.97
2023-01-04T08:01:53.985Z,97216.38
2023-01-04T08:04:28.332Z,97207.28
2023-01-04T08:06:58.657Z,97208.63
2023-01-04T08:09:26.164Z,97209.38
2023-01-04T08:11:55.041Z,97205.22
2023-01-04T08:14:23.255Z,97209.19
2023-01-04T08:16:50.767Z,97218.25
2023-01-04T08:19:20.374Z,97214.59
2023-01-04T08:21:49.173Z,97203.41
2023-01-04T08:24:18.852Z,97193.44
2023-01-04T08:26:47.598Z,97190.75
2023-01-04T08:29:16.548Z,97188.72
2023-01-04T08:31:44.157Z,97190.25
2023-01-04T08:34:11.712Z,97185.41
2023-01-04T08:36:47.742Z,97187.56
2023-01-04T08:39:15.500Z,97181.16
2023-01-04T08:41:59.327Z,97188.75
2023-01-04T08:44:31.697Z,97178.47
2023-01-04T08:46:59.271Z,97179.09
2023-01-04T08:49:26.955Z,97164.81
2023-01-04T08:51:54.603Z,97159.41
2023-01-04T08:54:22.851Z,97151.88
2023-01-04T08:56:50.368Z,97158.69
2023-01-04T08:59:17.958Z,97152.78
2023-01-04T09:01:47.046Z,97162.16
2023-01-04T09:04:14.704Z,97138.31
2023-01-04T09:06:42.637Z,97136.06
2023-01-04T09:09:10.261Z,97153.38
2023-01-04T09:11:39.252Z,97141.09
2023-01-04T09:14:09.503Z,97133.66
2023-01-04T09:16:38.696Z,97140.56
2023-01-04T09:19:08.411Z,97141.50
2023-01-04T09:21:36.140Z,97138.56
2023-01-04T09:24:03.755Z,97122.28
2023-01-04T09:26:31.430Z,97126.03
2023-01-04T09:28:59.141Z,97119.22
2023-01-04T09:31:29.173Z,97118.31
2023-01-04T09:34:15.339Z,97117.97
2023-01-04T09:36:46.145Z,97103.81
2023-01-04T09:39:21.676Z,97100.06
2023-01-04T09:41:56.601Z,97096.97
2023-01-04T09:45:11.913Z,97099.91
2023-01-04T09:47:31.376Z,97103.16
2023-01-04T09:50:03.607Z,97090.97
2023-01-04T09:52:43.606Z,97100.72
2023-01-04T09:55:37.008Z,97100.94
2023-01-04T09:58:15.022Z,97091.34
2023-01-04T10:00:46.802Z,97084.34
2023-01-04T10:03:19.460Z,97081.56
2023-01-04T10:05:47.050Z,97091.88
2023-01-04T10:08:18.281Z,97083.75
2023-01-04T10:10:52.979Z,97073.78
2023-01-04T10:13:31.464Z,97073.78
2023-01-04T10:16:10.046Z,97075.03
2023-01-04T10:21:43.109Z,97068.78
2023-01-04T10:24:33.414Z,97054.84
2023-01-04T10:27:08.970Z,97054.97
2023-01-04T10:29:45.176Z,97052.44
2023-01-04T10:32:20.311Z,97035.16
2023-01-04T10:34:49.128Z,97039.19
2023-01-04T10:37:20.875Z,97039.66
2023-01-04T10:39:52.633Z,97026.97
2023-01-04T10:42:31.692Z,97034.25
2023-01-04T10:45:13.496Z,97030.31
2023-01-04T10:47:54.650Z,97031.97
2023-01-04T10:50:28.481Z,97000.16
2023-01-04T10:53:03.554Z,97022.63
2023-01-04T10:55:40.056Z,97017.41
2023-01-04T10:58:33.462Z,97017.59
2023-01-04T11:01:08.061Z,97015.94
2023-01-04T11:03:41.147Z,97012.16
2023-01-04T11:06:13.723Z,97012.59
2023-01-04T11:08:48.859Z,97012.72
2023-01-04T11:11:21.800Z,97005.78
2023-01-04T11:13:50.640Z,96992.06
2023-01-04T11:16:18.340Z,96993.63
2023-01-04T11:18:49.424Z,96989.59
2023-01-04T11:21:21.548Z,96986.91
2023-01-04T11:23:49.089Z,96986.00
2023-01-04T11:26:21.569Z,96981.63
2023-01-04T11:28:53.355Z,96984.75
2023-01-04T11:31:27.089Z,96983.97
2023-01-04T11:33:57.264Z,96969.72
2023-01-04T11:36:37.274Z,96975.16
2023-01-04T11:39:07.211Z,96961.50
2023-01-04T11:41:36.065Z,96962.69
2023-01-04T11:44:06.056Z,96959.53
2023-01-04T11:46:35.054Z,96941.97
2023-01-04T11:49:02.716Z,96947.81
2023-01-04T11:51:40.877Z,96943.50
2023-01-04T11:54:20.166Z,96932.69
2023-01-04T11:57:10.800Z,96940.59
2023-01-04T11:59:39.079Z,96931.00
2023-01-04T12:02:59.670Z,96942.22
2023-01-04T12:05:22.794Z,96936.16
2023-01-04T12:07:56.206Z,96932.25
2023-01-04T12:10:27.172Z,96929.09
2023-01-04T12:12:57.412Z,96929.50
2023-01-04T12:15:33.083Z,96926.00
2023-01-04T12:18:05.260Z,96923.63
2023-01-04T12:20:32.855Z,96918.06
2023-01-04T12:23:00.372Z,96910.84
2023-01-04T12:25:36.281Z,96899.09
2023-01-04T12:28:05.753Z,96888.06
2023-01-04T12:30:39.883Z,96861.13
2023-01-04T12:33:41.174Z,96866.97
2023-01-04T12:36:09.634Z,96858.50
2023-01-04T12:39:14.509Z,96853.88
2023-01-04T12:42:10.669Z,96848.84
2023-01-04T12:45:21.215Z,96846.91
2023-01-04T12:48:09.735Z,96858.88
2023-01-04T12:51:32.344Z,96854.41
2023-01-04T12:54:03.046Z,96848.59
2023-01-04T12:57:08.277Z,96849.84
2023-01-04T12:59:38.014Z,96856.41
2023-01-04T13:02:21.996Z,96843.88
2023-01-04T13:05:09.323Z,96842.97
2023-01-04T13:07:43.774Z,96845.50
2023-01-04T13:10:22.857Z,96851.81
2023-01-04T13:13:21.956Z,96847.31
2023-01-04T13:16:07.119Z,96845.09
2023-01-04T13:18:37.679Z,96847.19
2023-01-04T13:21:13.589Z,96847.31
2023-01-04T13:23:42.082Z,96846.19
2023-01-04T13:26:40.218Z,96836.69
2023-01-04T13:29:10.277Z,96833.47
2023-01-04T13:31:49.469Z,96833.50
2023-01-04T13:34:21.134Z,96831.28
2023-01-04T13:37:03.453Z,96824.84
2023-01-04T13:39:31.364Z,96819.81
2023-01-04T13:42:00.052Z,96820.97
2023-01-04T13:45:17.743Z,96819.31
2023-01-04T13:47:36.538Z,96808.09
2023-01-04T13:50:06.515Z,96808.44
2023-01-04T13:53:05.715Z,96804.38
2023-01-04T13:55:27.239Z,96797.00
2023-01-04T13:57:56.112Z,96797.59
2023-01-04T14:00:25.075Z,96792.00
2023-01-04T14:03:06.679Z,96786.41
2023-01-04T14:05:34.315Z,96787.41
2023-01-04T14:08:03.597Z,96783.34
2023-01-04T14:10:31.097Z,96780.31
2023-01-04T14:12:58.954Z,96774.72
2023-01-04T14:15:27.202Z,96769.41
2023-01-04T14:17:56.023Z,96762.09
2023-01-04T14:20:36.204Z,96763.06
2023-01-04T14:23:05.313Z,96761.09
2023-01-04T14:25:44.749Z,96753.00
2023-01-04T14:28:29.395Z,96762.34
2023-01-04T14:31:12.921Z,96752.69
2023-01-04T14:33:43.614Z,96758.69
2023-01-04T14:36:14.191Z,96762.19
2023-01-04T14:38:45.314Z,96763.31
2023-01-04T14:41:20.940Z,96759.44
2023-01-04T14:43:50.603Z,96756.75
2023-01-04T14:46:18.189Z,96760.41
2023-01-04T14:48:45.717Z,96764.03
2023-01-04T14:51:17.217Z,96758.88
2023-01-04T14:53:46.420Z,96756.91
2023-01-04T14:56:15.230Z,96758.31
2023-01-04T14:58:43.226Z,96763.16
2023-01-04T15:01:12.695Z,96769.75
2023-01-04T15:03:40.676Z,96767.78
2023-01-04T15:06:08.817Z,96769.34
2023-01-04T15:08:36.310Z,96756.38
2023-01-04T15:11:05.136Z,96758.75
2023-01-04T15:13:39.101Z,96758.59
2023-01-04T15:16:08.413Z,96754.97
2023-01-04T15:18:35.957Z,96758.31
2023-01-04T15:21:04.266Z,96766.81
2023-01-04T15:23:31.946Z,96752.75
2023-01-04T15:26:01.652Z,96751.66
2023-01-04T15:28:30.516Z,96736.31
2023-01-04T15:30:59.757Z,96748.56
2023-01-04T15:33:32.031Z,96749.53
2023-01-04T15:36:00.821Z,96746.19
2023-01-04T15:38:28.313Z,96734.53
2023-01-04T15:41:01.081Z,96738.56
2023-01-04T15:43:35.755Z,96745.09
2023-01-04T15:46:07.245Z,96752.75
2023-01-04T15:48:36.684Z,96731.44
2023-01-04T15:51:05.888Z,96739.53
2023-01-04T15:53:33.412Z,96731.19
2023-01-04T15:56:08.599Z,96721.16
2023-01-04T15:58:37.662Z,96718.50
2023-01-04T16:01:09.545Z,96700.69
2023-01-04T16:03:37.599Z,96699.00
2023-01-04T16:06:08.631Z,96702.63
2023-01-04T16:08:36.164Z,96684.81
2023-01-04T16:11:11.323Z,96678.97
2023-01-04T16:13:40.173Z,96687.88
2023-01-04T16:16:08.663Z,96672.56
2023-01-04T16:18:36.720Z,96683.13
2023-01-04T16:21:06.927Z,96671.28
2023-01-04T16:23:34.434Z,96665.88
2023-01-04T16:26:10.002Z,96660.03
2023-01-04T16:28:37.727Z,96652.66
2023-01-04T16:31:07.746Z,96649.75
2023-01-04T16:33:36.347Z,96658.94
2023-01-04T16:36:06.266Z,96655.31
2023-01-04T16:38:36.480Z,96664.94
2023-01-04T16:41:05.145Z,96650.03
2023-01-04T16:43:33.026Z,96651.13
2023-01-04T16:46:21.584Z,96643.78
2023-01-04T16:48:51.264Z,96646.69
2023-01-04T16:51:19.124Z,96666.00
2023-01-04T16:53:46.642Z,96651.69
2023-01-04T16:56:16.248Z,96656.44
2023-01-04T16:58:44.816Z,96644.31
2023-01-04T17:01:15.607Z,96659.06
2023-01-04T17:03:45.801Z,96651.97
2023-01-04T17:06:15.558Z,96659.50
2023-01-04T17:08:43.590Z,96657.53
2023-01-04T17:14:01.407Z,96655.19
2023-01-04T17:16:34.420Z,96663.38
2023-01-04T17:19:03.963Z,96657.38
2023-01-04T17:21:34.781Z,96638.63
2023-01-04T17:24:03.566Z,96647.94
2023-01-04T17:26:33.419Z,96640.84
2023-01-04T17:29:02.320Z,96647.31
2023-01-04T17:31:32.726Z,96648.06
2023-01-04T17:34:00.530Z,96641.38
2023-01-04T17:36:29.507Z,96637.75
2023-01-04T17:38:59.163Z,96645.97
2023-01-04T17:41:28.313Z,96636.97
2023-01-04T17:44:00.026Z,96638.06
2023-01-04T17:46:30.696Z,96645.00
2023-01-04T17:49:21.614Z,96649.16
2023-01-04T17:51:47.605Z,96646.13
2023-01-04T17:54:15.383Z,96640.38
2023-01-04T17:56:43.443Z,96626.59
2023-01-04T17:59:11.880Z,96629.13
2023-01-04T18:01:39.568Z,96635.81
2023-01-04T18:04:07.301Z,96627.88
2023-01-04T18:06:36.708Z,96625.94
2023-01-04T18:09:07.895Z,96625.81
2023-01-04T18:11:37.290Z,96614.66
2023-01-04T18:14:09.764Z,96616.63
2023-01-04T18:16:56.132Z,96605.22
2023-01-04T18:19:25.218Z,96610.22
2023-01-04T18:21:53.381Z,96604.09
2023-01-04T18:24:35.915Z,96599.81
2023-01-04T18:29:52.831Z,96607.88
2023-01-04T18:32:20.847Z,96604.50
2023-01-04T18:34:48.403Z,96605.78
2023-01-04T18:37:18.130Z,96614.69
2023-01-04T18:39:47.097Z,96614.56
2023-01-04T18:42:14.880Z,96604.41
2023-01-04T18:44:47.774Z,96592.00
2023-01-04T18:47:16.311Z,96603.00
2023-01-04T18:49:43.880Z,96606.88
2023-01-04T18:52:11.407Z,96590.88
2023-01-04T18:54:39.059Z,96581.97
2023-01-04T18:57:07.949Z,96585.41
2023-01-04T18:59:35.522Z,96576.69
2023-01-04T19:02:03.767Z,96586.84
2023-01-04T19:04:33.425Z,96577.66
2023-01-04T19:07:01.428Z,96571.81
2023-01-04T19:09:29.330Z,96574.31
2023-01-04T19:11:56.935Z,96569.16
2023-01-04T19:14:25.838Z,96556.47
2023-01-04T19:16:53.642Z,96558.97
2023-01-04T19:19:21.308Z,96560.66
2023-01-04T19:21:48.884Z,96556.69
2023-01-04T19:24:16.390Z,96556.16
2023-01-04T19:26:44.353Z,96550.03
2023-01-04T19:29:11.997Z,96539.13
2023-01-04T19:31:40.915Z,96539.84
2023-01-04T19:34:10.106Z,96546.84
2023-01-04T19:36:37.865Z,96545.38
2023-01-04T19:39:09.002Z,96543.94
2023-01-04T19:41:37.890Z,96537.03
2023-01-04T19:44:07.197Z,96533.66
2023-01-04T19:46:34.935Z,96535.47
2023-01-04T19:49:03.766Z,96534.69
2023-01-04T19:51:31.270Z,96530.50
2023-01-04T19:53:58.821Z,96536.91
2023-01-04T19:56:26.397Z,96538.69
2023-01-04T19:58:54.070Z,96536.66
2023-01-04T20:01:23.188Z,96544.44
2023-01-04T20:03:51.278Z,96545.25
2023-01-04T20:06:20.241Z,96541.81
2023-01-04T20:08:47.827Z,96535.06
2023-01-04T20:11:15.952Z,96545.66
2023-01-04T20:13:43.455Z,96526.06
2023-01-04T20:16:11.329Z,96525.16
2023-01-04T20:18:39.566Z,96522.59
2023-01-04T20:21:11.390Z,96521.16
2023-01-04T20:23:41.189Z,96525.81
2023-01-04T20:26:11.679Z,96517.22
2023-01-04T20:28:41.753Z,96529.50
2023-01-04T20:31:10.761Z,96518.31
2023-01-04T20:33:38.403Z,96508.31
2023-01-04T20:36:07.525Z,96508.00
2023-01-04T20:38:40.160Z,96515.75
2023-01-04T20:41:12.486Z,96514.91
2023-01-04T20:43:39.185Z,96510.09
2023-01-04T20:46:12.490Z,96514.25
2023-01-04T20:48:40.693Z,96514.72
2023-01-04T20:51:09.059Z,96513.38
2023-01-04T20:53:37.050Z,96512.66
2023-01-04T20:56:13.617Z,96514.88
2023-01-04T20:58:41.160Z,96525.47
2023-01-04T21:01:09.039Z,96506.69
2023-01-04T21:03:37.400Z,96518.56
2023-01-04T21:06:07.601Z,96510.78
2023-01-04T21:08:36.361Z,96515.91
2023-01-04T21:11:04.417Z,96516.22
2023-01-04T21:13:33.622Z,96517.50
2023-01-04T21:16:01.791Z,96516.38
2023-01-04T21:18:29.389Z,96502.41
2023-01-04T21:20:56.980Z,96504.88
2023-01-04T21:23:27.863Z,96507.66
2023-01-04T21:25:56.978Z,96516.16
2023-01-04T21:28:24.509Z,96529.09
2023-01-04T21:30:53.580Z,96528.50
2023-01-04T21:33:21.100Z,96523.53
2023-01-04T21:35:48.607Z,96516.00
2023-01-04T21:38:16.125Z,96503.19
2023-01-04T21:40:43.654Z,96508.31
2023-01-04T21:43:19.336Z,96511.56
2023-01-04T21:45:46.849Z,96507.63
2023-01-04T21:48:15.690Z,96509.69
2023-01-04T21:50:43.196Z,96517.91
2023-01-04T21:53:10.739Z,96535.56
2023-01-04T21:55:38.224Z,96532.50
2023-01-04T21:58:05.758Z,96521.41
2023-01-04T22:00:33.238Z,96523.50
2023-01-04T22:03:00.861Z,96507.84
2023-01-04T22:05:31.754Z,96498.72
2023-01-04T22:07:59.233Z,96494.59
2023-01-04T22:10:26.763Z,96495.31
2023-01-04T22:12:54.247Z,96495.88
2023-01-04T22:15:21.754Z,96497.00
2023-01-04T22:17:50.326Z,96498.53
2023-01-04T22:20:18.201Z,96490.78
2023-01-04T22:22:47.063Z,96482.41
2023-01-04T22:25:14.783Z,96487.84
2023-01-04T22:27:42.317Z,96489.66
2023-01-04T22:30:10.717Z,96486.50
2023-01-04T22:32:38.233Z,96484.31
2023-01-04T22:35:06.687Z,96491.56
2023-01-04T22:37:34.305Z,96487.63
2023-01-04T22:40:03.224Z,96473.72
2023-01-04T22:42:30.705Z,96464.16
2023-01-04T22:44:58.170Z,96452.50
2023-01-04T22:47:25.655Z,96468.09
2023-01-04T22:49:53.137Z,96469.38
2023-01-04T22:52:20.690Z,96462.94
2023-01-04T22:54:48.610Z,96471.03
2023-01-04T22:57:17.455Z,96478.25
2023-01-04T22:59:44.947Z,96486.41
2023-01-04T23:02:12.423Z,96466.13
2023-01-04T23:04:40.090Z,96471.13
2023-01-04T23:07:07.836Z,96469.63
2023-01-04T23:09:35.340Z,96464.81
2023-01-04T23:12:02.872Z,96468.53
2023-01-04T23:14:31.890Z,96465.97
2023-01-04T23:16:59.478Z,96470.28
2023-01-04T23:19:27.248Z,96470.06
2023-01-04T23:21:54.773Z,96466.50
2023-01-04T23:24:22.292Z,96444.25
2023-01-04T23:26:49.822Z,96464.34
2023-01-04T23:29:17.418Z,96453.13
2023-01-04T23:31:46.305Z,96461.28
2023-01-04T23:34:13.866Z,96464.00
2023-01-04T23:36:42.867Z,96450.53
2023-01-04T23:39:14.827Z,96470.81
2023-01-04T23:41:45.740Z,96474.88
2023-01-04T23:44:15.759Z,96471.34
2023-01-04T23:46:43.608Z,96462.19
2023-01-04T23:49:13.352Z,96452.31
2023-01-04T23:51:42.390Z,96455.72
2023-01-04T23:54:10.190Z,96439.91
2023-01-04T23:56:38.555Z,96427.91
2023-01-04T23:59:06.617Z,96439.97
